createdAt,value
2022-08-10T00:04:24.556Z,100.00
2022-08-10T00:09:26.661Z,100.00
2022-08-10T00:14:28.781Z,100.00
2022-08-10T00:20:02.623Z,100.00
2022-08-10T00:24:53.936Z,100.00
2022-08-10T00:29:56.411Z,100.00
2022-08-10T00:34:58.343Z,100.00
2022-08-10T00:40:00.572Z,100.00
2022-08-10T00:45:03.085Z,100.00
2022-08-10T00:50:07.544Z,100.00
2022-08-10T00:55:12.472Z,100.00
2022-08-10T01:00:15.172Z,100.00
2022-08-10T01:05:24.010Z,100.00
2022-08-10T01:10:49.274Z,100.00
2022-08-10T01:16:27.666Z,100.00
2022-08-10T01:21:57.246Z,100.00
2022-08-10T01:27:27.043Z,100.00
2022-08-10T01:32:38.637Z,100.00
2022-08-10T01:37:51.999Z,100.00
2022-08-10T01:42:59.837Z,100.00
2022-08-10T01:48:28.515Z,100.00
2022-08-10T01:53:40.179Z,100.00
2022-08-10T01:58:45.477Z,100.00
2022-08-10T02:04:05.166Z,100.00
2022-08-10T02:09:12.227Z,100.00
2022-08-10T02:14:15.259Z,100.00
2022-08-10T02:19:29.332Z,100.00
2022-08-10T02:24:41.031Z,100.00
2022-08-10T02:29:44.892Z,100.00
2022-08-10T02:34:52.030Z,100.00
2022-08-10T02:39:54.653Z,100.00
2022-08-10T02:45:29.727Z,100.00
2022-08-10T02:50:38.300Z,100.00
2022-08-10T02:55:46.345Z,100.00
2022-08-10T03:00:53.506Z,100.00
2022-08-10T03:06:10.812Z,100.00
2022-08-10T03:12:35.228Z,100.00
2022-08-10T03:16:43.355Z,100.00
2022-08-10T03:21:50.197Z,100.00
2022-08-10T03:26:54.266Z,100.00
2022-08-10T03:31:58.490Z,100.00
2022-08-10T03:37:00.747Z,100.00
2022-08-10T03:42:06.124Z,100.00
2022-08-10T03:47:16.178Z,100.00
2022-08-10T03:52:20.143Z,100.00
2022-08-10T03:57:22.555Z,100.00
2022-08-10T04:02:46.987Z,100.00
2022-08-10T04:07:50.146Z,100.00
2022-08-10T04:13:12.339Z,100.00
2022-08-10T04:18:20.803Z,100.00
2022-08-10T04:23:25.733Z,100.00
2022-08-10T04:28:28.668Z,100.00
2022-08-10T04:33:33.179Z,100.00
2022-08-10T04:38:37.257Z,100.00
2022-08-10T04:43:39.674Z,100.00
2022-08-10T04:48:59.677Z,100.00
2022-08-10T04:54:07.121Z,100.00
2022-08-10T04:59:12.248Z,100.00
2022-08-10T05:04:35.743Z,100.00
2022-08-10T05:10:04.510Z,100.00
2022-08-10T05:15:13.486Z,100.00
2022-08-10T05:20:17.664Z,100.00
2022-08-10T05:25:20.282Z,100.00
2022-08-10T05:30:23.261Z,100.00
2022-08-10T05:35:26.285Z,100.00
2022-08-10T05:40:28.777Z,100.00
2022-08-10T05:45:30.801Z,100.00
2022-08-10T05:50:34.797Z,100.00
2022-08-10T05:55:37.045Z,98.19
2022-08-10T06:00:57.729Z,97.55
2022-08-10T06:06:02.401Z,96.50
2022-08-10T06:12:27.530Z,93.78
2022-08-10T06:16:30.003Z,92.29
2022-08-10T06:21:41.216Z,90.26
2022-08-10T06:27:02.555Z,88.79
2022-08-10T06:32:06.930Z,88.08
2022-08-10T06:37:10.920Z,87.23
2022-08-10T06:42:34.206Z,86.94
2022-08-10T06:48:00.510Z,87.79
2022-08-10T06:53:03.867Z,86.78
2022-08-10T06:58:07.268Z,87.81
2022-08-10T07:03:18.379Z,86.71
2022-08-10T07:08:23.483Z,84.34
2022-08-10T07:14:16.287Z,82.92
2022-08-10T07:18:49.692Z,81.77
2022-08-10T07:23:59.567Z,79.48
2022-08-10T07:29:03.762Z,74.62
2022-08-10T07:34:07.378Z,73.88
2022-08-10T07:39:12.860Z,70.81
2022-08-10T07:44:16.451Z,68.51
2022-08-10T07:49:23.897Z,69.22
2022-08-10T07:54:29.369Z,67.13
2022-08-10T07:59:45.166Z,63.03
2022-08-10T08:04:48.677Z,62.28
2022-08-10T08:09:57.587Z,59.88
2022-08-10T08:16:14.550Z,59.09
2022-08-10T08:20:26.780Z,59.17
2022-08-10T08:25:35.512Z,57.07
2022-08-10T08:30:41.898Z,54.30
2022-08-10T08:35:49.234Z,54.20
2022-08-10T08:41:01.271Z,53.76
2022-08-10T08:46:34.824Z,52.29
2022-08-10T08:52:06.218Z,49.04
2022-08-10T08:57:22.952Z,48.93
2022-08-10T09:03:02.118Z,47.46
2022-08-10T09:08:27.406Z,46.63
2022-08-10T09:13:41.724Z,46.64
2022-08-10T09:19:19.645Z,44.89
2022-08-10T09:25:08.971Z,44.44
2022-08-10T09:30:13.488Z,42.69
2022-08-10T09:36:26.579Z,43.66
2022-08-10T09:41:13.172Z,43.37
2022-08-10T09:46:33.363Z,44.24
2022-08-10T09:51:51.813Z,44.39
2022-08-10T09:57:44.166Z,44.26
2022-08-10T10:03:12.656Z,43.41
2022-08-10T10:08:42.224Z,41.25
2022-08-10T10:14:01.793Z,40.73
2022-08-10T10:19:30.275Z,40.15
2022-08-10T10:24:50.913Z,39.56
2022-08-10T10:30:06.569Z,40.02
2022-08-10T10:35:35.617Z,39.83
2022-08-10T10:40:55.218Z,38.17
2022-08-10T10:46:02.835Z,38.77
2022-08-10T10:51:42.392Z,37.77
2022-08-10T10:57:19.721Z,39.18
2022-08-10T11:02:57.384Z,40.05
2022-08-10T11:08:29.045Z,38.26
2022-08-10T11:14:27.365Z,38.23
2022-08-10T11:19:23.645Z,40.30
2022-08-10T11:24:50.658Z,40.72
2022-08-10T11:30:06.456Z,40.43
2022-08-10T11:35:23.808Z,38.27
2022-08-10T11:40:43.825Z,40.84
2022-08-10T11:45:55.576Z,40.29
2022-08-10T11:51:09.943Z,38.48
2022-08-10T11:56:27.905Z,37.27
2022-08-10T12:01:34.414Z,37.60
2022-08-10T12:06:54.796Z,38.02
2022-08-10T12:12:00.508Z,36.01
2022-08-10T12:17:07.639Z,35.36
2022-08-10T12:22:14.732Z,33.22
2022-08-10T12:27:21.364Z,34.56
2022-08-10T12:32:32.676Z,34.76
2022-08-10T12:37:53.367Z,34.34
2022-08-10T12:44:07.586Z,34.91
2022-08-10T12:49:22.783Z,37.65
2022-08-10T12:54:31.963Z,39.67
2022-08-10T12:59:43.212Z,40.19
2022-08-10T13:04:50.829Z,38.63
2022-08-10T13:09:55.683Z,35.69
2022-08-10T13:15:47.748Z,34.63
2022-08-10T13:20:34.379Z,33.43
2022-08-10T13:25:40.513Z,36.51
2022-08-10T13:30:50.631Z,38.96
2022-08-10T13:35:58.236Z,39.91
2022-08-10T13:41:25.505Z,39.55
2022-08-10T13:46:30.948Z,38.73
2022-08-10T13:51:56.473Z,37.69
2022-08-10T13:57:20.397Z,34.19
2022-08-10T14:02:48.379Z,33.11
2022-08-10T14:08:00.541Z,31.14
2022-08-10T14:13:05.415Z,31.26
2022-08-10T14:18:09.532Z,32.38
2022-08-10T14:23:13.504Z,34.67
2022-08-10T14:28:17.871Z,36.17
2022-08-10T14:33:23.521Z,34.88
2022-08-10T14:38:29.040Z,31.95
2022-08-10T14:43:42.561Z,31.39
2022-08-10T14:48:50.762Z,31.59
2022-08-10T14:53:58.676Z,31.67
2022-08-10T14:59:06.762Z,29.63
2022-08-10T15:04:13.318Z,30.06
2022-08-10T15:09:19.199Z,32.40
2022-08-10T15:14:43.071Z,33.11
2022-08-10T15:20:02.863Z,33.11
2022-08-10T15:25:19.007Z,33.50
2022-08-10T15:30:32.002Z,32.80
2022-08-10T15:35:53.510Z,31.16
2022-08-10T15:40:57.127Z,30.93
2022-08-10T15:46:20.483Z,30.71
2022-08-10T15:51:33.746Z,30.22
2022-08-10T15:57:10.954Z,29.85
2022-08-10T16:02:17.753Z,28.76
2022-08-10T16:07:46.213Z,29.05
2022-08-10T16:13:00.032Z,29.77
2022-08-10T16:18:13.451Z,31.76
2022-08-10T16:23:19.953Z,32.52
2022-08-10T16:28:30.363Z,33.27
2022-08-10T16:33:53.549Z,32.80
2022-08-10T16:38:58.877Z,32.53
2022-08-10T16:44:01.312Z,32.07
2022-08-10T16:49:03.526Z,31.44
2022-08-10T16:54:07.719Z,31.94
2022-08-10T16:59:10.734Z,32.56
2022-08-10T17:04:41.185Z,32.72
2022-08-10T17:09:49.640Z,32.71
2022-08-10T17:15:09.630Z,32.61
2022-08-10T17:20:31.909Z,33.66
2022-08-10T17:25:50.974Z,34.46
2022-08-10T17:30:58.121Z,34.88
2022-08-10T17:36:08.868Z,35.38
2022-08-10T17:41:13.753Z,35.26
2022-08-10T17:46:17.184Z,36.49
2022-08-10T17:51:19.389Z,37.73
2022-08-10T17:56:22.676Z,38.78
2022-08-10T18:01:41.775Z,40.04
2022-08-10T18:07:02.656Z,41.73
2022-08-10T18:12:18.483Z,43.71
2022-08-10T18:17:39.150Z,45.15
2022-08-10T18:22:48.099Z,46.25
2022-08-10T18:28:04.187Z,47.49
2022-08-10T18:33:10.771Z,49.15
2022-08-10T18:38:14.861Z,50.31
2022-08-10T18:44:06.956Z,51.28
2022-08-10T18:49:06.697Z,52.32
2022-08-10T18:54:39.778Z,53.46
2022-08-10T19:00:08.001Z,54.95
2022-08-10T19:05:31.359Z,56.45
2022-08-10T19:11:02.653Z,58.57
2022-08-10T19:16:07.397Z,60.23
2022-08-10T19:21:27.524Z,61.24
2022-08-10T19:26:45.800Z,62.11
2022-08-10T19:32:00.365Z,63.47
2022-08-10T19:37:20.954Z,64.81
2022-08-10T19:42:49.904Z,66.99
2022-08-10T19:48:00.754Z,67.59
2022-08-10T19:53:24.801Z,69.28
2022-08-10T19:58:47.923Z,70.79
2022-08-10T20:04:04.449Z,70.41
2022-08-10T20:09:36.030Z,72.34
2022-08-10T20:15:02.825Z,73.66
2022-08-10T20:20:31.016Z,75.07
2022-08-10T20:25:34.591Z,76.28
2022-08-10T20:30:41.894Z,76.00
2022-08-10T20:35:50.399Z,77.92
2022-08-10T20:41:19.660Z,80.16
2022-08-10T20:46:29.651Z,81.03
2022-08-10T20:51:59.510Z,81.89
2022-08-10T20:57:54.352Z,83.46
2022-08-10T21:03:06.677Z,83.92
2022-08-10T21:08:13.059Z,84.46
2022-08-10T21:13:33.185Z,85.01
2022-08-10T21:18:51.900Z,86.57
2022-08-10T21:24:24.054Z,86.35
2022-08-10T21:29:40.413Z,86.74
2022-08-10T21:35:20.122Z,87.50
2022-08-10T21:41:57.529Z,88.64
2022-08-10T21:47:41.929Z,89.64
2022-08-10T21:53:44.577Z,89.24
2022-08-10T21:59:20.937Z,89.77
2022-08-10T22:04:55.136Z,90.92
2022-08-10T22:10:17.643Z,92.14
2022-08-10T22:16:05.555Z,93.26
2022-08-10T22:21:49.742Z,93.43
2022-08-10T22:27:49.511Z,93.88
2022-08-10T22:33:29.224Z,94.28
2022-08-10T22:38:56.295Z,95.39
2022-08-10T22:44:21.302Z,96.02
2022-08-10T22:49:24.152Z,97.58
2022-08-10T22:54:56.872Z,98.41
2022-08-10T23:00:14.561Z,99.42
2022-08-10T23:05:18.741Z,98.56
2022-08-10T23:10:41.650Z,99.80
2022-08-10T23:16:14.722Z,100.00
2022-08-10T23:21:19.852Z,100.00
2022-08-10T23:26:27.224Z,100.00
2022-08-10T23:31:59.045Z,100.00
2022-08-10T23:36:56.361Z,100.00
2022-08-10T23:42:07.232Z,100.00
2022-08-10T23:47:13.139Z,100.00
2022-08-10T23:52:27.680Z,100.00
2022-08-10T23:57:32.651Z,100.00
